FKKDDNPO

Guest
Details From FKKD - Douala
To DNPO - PORT HARCOURT INTL
Flight Number -
Tags generated
Created
Modified
Stats Distance 177 nm / 327 km
Max Altitude 22,400 ft / 6,828 m
Waypoints 3
Social Downloads 0
Likes 0
Share VATSIM

Download

Looking for another format? Having issues loading an existing format? Contact us
Advertisement - Login to hide

Notes

Basic altitude profile: - Ascent Rate: 1000ft/min - Ascent Speed: 250kts - Cruise Altitude: 14000ft - Cruise Speed: 250kts - Descent Rate: 1000ft/min - Descent Speed: 250kts Options: - Use NATs: yes - Use PACOTS: yes - Use low airways: yes - Use high airways: no

Route

FKKD VITLI DNPO

ID Type Via Altitude Latitude Longitude Leg Dist Tot Dist Heading (true) Name
O FKKD APT - 0 ft / 0 m 4.01421˚ 9.71654˚ - 0 nm - Douala
VITLI FIX - 22,400 ft / 6,828 m 4.34639˚ 8.56667˚ 71 nm 71 nm 286° / 286° -
O DNPO APT - 0 ft / 0 m 5.01546˚ 6.94953˚ 104 nm 176 nm 293° / 292° PORT HARCOURT INTL

Altitude Profile

Advertisement - Login to hide

Weather


0- 5 10 15 20 25 30 35+ Temperature / ° C

Clouds and Precipitation
Forecast for 2017-12-13 06:00 UTC. Updated 42 minutes ago

Ground ~20,000 ft ~40,000 ft Winds

FKKD

Details ICAO FKKD (DLA)
Name Douala
Region Cameroon
Timezone Africa/Douala (UTC+1.0)
Stats Elevation 33 ft / 10 m (AMSL)
Location 4.014208° 9.716538°
Runways 2
Magnetic Variation 1.105° W

METAR

Not found

TAF

TAF FKKD 130500Z 1306/1412 VRB04KT 2000 HZ SCT016 FEW020CB TEMPO 1306/1308 1200 BR BKN013 FEW016CB TEMPO 1322/1408 1400 BR

Decode

Departure Runways

ID Width Length Bearing (true) Bearing (mag) Surface Threshold Offset Overrun Length
03 147 ft / 45 m 8,210 ft / 2,502 m 27.00° 28.11° Asphalt 350 ft / 107 m 0 ft / 0 m
12 148 ft / 45 m 9,363 ft / 2,854 m 116.94° 118.05° Asphalt 0 ft / 0 m 164 ft / 50 m
21 147 ft / 45 m 8,210 ft / 2,502 m 207.00° 208.11° Asphalt 350 ft / 107 m 0 ft / 0 m
30 148 ft / 45 m 9,363 ft / 2,854 m 296.94° 298.05° Asphalt 0 ft / 0 m 164 ft / 50 m

DNPO

Details ICAO DNPO (PHC)
Name PORT HARCOURT INTL
Region Nigeria
Timezone Africa/Lagos (UTC+1.0)
Stats Elevation 87 ft / 27 m (AMSL)
Location 5.015455° 6.949529°
Runways 1
Magnetic Variation 1.621° W

METAR

DNPO 130500Z 00000KT 0600 FG VV004 23/23 Q1011 NOSIG

Decode

TAF

TAF DNPO 130350Z 1306/1412 31005KT 1500 BR FEW008 TEMPO 1306/1308 0800 FG VV/// BECMG 1309/1311 5000 HZ TEMPO 1312/1316 BKN013

Decode

Destination Runways

ID Width Length Bearing (true) Bearing (mag) Surface Threshold Offset Overrun Length
03 197 ft / 60 m 9,888 ft / 3,014 m 28.09° 29.71° Asphalt 0 ft / 0 m 400 ft / 122 m
21 197 ft / 60 m 9,888 ft / 3,014 m 208.09° 209.71° Asphalt 0 ft / 0 m 400 ft / 122 m

Approach Navaids

Runway Type Ident Frequency Range Bearing (true) Bearing (mag) Slope Elevation
21 Localiser IPC 110.30 MHz 18 nm / 33 km 208.09° 209.71° - 85 ft / 26 m (AMSL)
21 Glidescope IPC 110.30 MHz 10 nm / 19 km 208.09° 209.71° 3.00° 131 ft / 40 m (AMSL)
21 DME IPC 110.30 MHz 18 nm / 33 km - - - 87 ft / 27 m (AMSL)